Maryland Heights, MO (63043)

4:16 AM CST on February 12, 2016 (GMT -0600)
Starrco - Maryland Heights Mo | | Change Station
CLOSE
Current Station
Personal Weather Station
Location: Maryland Heights, MO
Elevation: 528 ft
Nearby Weather Stations

Elev 528 ft 38.71 °N, 90.43 °W | Updated 11 minutes ago

Light Snow
Light Snow
24.3 °F
Feels Like 20 °F
N
3.2
Wind Variable Wind from East

Today
High -- | Low -- °F
--% Chance of Precip.
Yesterday
High -- | Low -- °F
Precip. -- in
Pressure 30.25 in
Visibility 7.0 miles
Clouds Few 700 ft
Mostly Cloudy 3900 ft
Overcast 4900 ft
Windchill 20 °F
Dew Point 22 °F
Humidity 90%
Rainfall 0.00 in
Snow Depth Not available.
6:56 AM 5:35 PM
Waxing Crescent, 19% visible
METAR KSTL 120951Z 07003KT 7SM -SN FEW007 BKN039 OVC049 M03/M06 A3021 RMK AO2 SLP241 P0000 T10331061 $
Pressure 30.25 in
Visibility 7.0 miles
Clouds Few 700 ft
Mostly Cloudy 3900 ft
Overcast 4900 ft
Windchill 20 °F
Dew Point 22 °F
Humidity 90%
Rainfall 0.00 in
Snow Depth Not available.
6:56 AM 5:35 PM
Waxing Crescent, 19% visible
METAR KSTL 120951Z 07003KT 7SM -SN FEW007 BKN039 OVC049 M03/M06 A3021 RMK AO2 SLP241 P0000 T10331061 $

10-Day Weather Forecast

Almanac

Astronomy

Feb. 12, 2016 Rise Set
Actual Time
Civil Twilight
Nautical Twilight
Astronomical Twilight
Moon
Length of Visible Light
Length of Day
Tomorrow will be .
, % of the Moon is Illuminated

Today's Extremes

State Highs State Lows

Community

WunderPhotos

Upload Photos

1,892,287 photos uploaded!

WunderBlog® & News

Nearby

Air Quality

  Air Quality AQ Index Pollutant
Not available.

Snow Depth

Station Depth Elevation

Earthquake Activity

City Distance Mag. Time & Date
Minimum magnitude displayed is 2.5.

Coastal Water Temperatures

Place Temperature

Stations

Nearby Weather Stations

Station Location Temp. Windchill Dew Point Humidity Wind Precip. Elev Updated Type
                   

Watches & Warnings

There are currently no watches in effect.